WIDD

Hang Nadim International Airport

Batam Island, Indonesia
TAF WIDD 221100Z 2212/2312 01008KT 9000 FEW014 BECMG 2215/2217 01005KT
Issued Valid From Valid To
Jan-22 @ 11:00 UTC
(6 hours ago)
Jan-22 @ 12:00 UTC
(5 hours ago)
Jan-23 @ 12:00 UTC
(in 19 hours)
Expired Click to View Jan-22 @ 12:00 to Jan-22 @ 15:00
TAF WIDD 221100Z 2212/2312 01008KT 9000 FEW014
Wind Visibility Clouds
10° at 8 knots 8,996 meters
  • Few at 1,400' AGL
Becoming Jan-22 @ 15:00 to Jan-23 @ 12:00
BECMG 2215/2217 01005KT
Wind Visibility Clouds
10° at 5 knots 8,996 meters
  • Few at 1,400' AGL
TAF WIDD 221100Z 2212/2312 01008KT 9000 FEW014 BECMG 2215/2217 01005KT
Issued Jan-22 @ 11:00 UTC
(6 hours ago)
Valid From Jan-22 @ 12:00 UTC
(5 hours ago)
Valid To Jan-23 @ 12:00 UTC
(in 19 hours)
Jan-22 @ 12:00 - Jan-22 @ 15:00
Wind Visibility
10° at 8 knots 8,996 meters
Clouds
  • Few at 1,400' AGL
Becoming Jan-22 @ 15:00 - Jan-23 @ 12:00
Wind Visibility
10° at 5 knots 8,996 meters
Clouds
  • Few at 1,400' AGL